sensor_id;sensor_type;location;lat;lon;timestamp;temperature;humidity
18426;DHT22;9340;48.756;9.226;2023-04-24T00:01:38;11.40;99.90
18426;DHT22;9340;48.756;9.226;2023-04-24T00:04:04;11.40;99.90
18426;DHT22;9340;48.756;9.226;2023-04-24T00:06:32;11.50;99.90
18426;DHT22;9340;48.756;9.226;2023-04-24T00:08:59;11.50;99.90
18426;DHT22;9340;48.756;9.226;2023-04-24T00:11:28;11.50;99.90
18426;DHT22;9340;48.756;9.226;2023-04-24T00:13:55;11.50;99.90
18426;DHT22;9340;48.756;9.226;2023-04-24T00:16:22;11.50;99.90
18426;DHT22;9340;48.756;9.226;2023-04-24T00:18:49;11.50;99.90
18426;DHT22;9340;48.756;9.226;2023-04-24T00:21:18;11.50;99.90
18426;DHT22;9340;48.756;9.226;2023-04-24T00:23:44;11.50;99.90
18426;DHT22;9340;48.756;9.226;2023-04-24T00:26:11;11.40;99.90
18426;DHT22;9340;48.756;9.226;2023-04-24T00:28:39;11.40;99.90
18426;DHT22;9340;48.756;9.226;2023-04-24T00:31:06;11.40;99.90
18426;DHT22;9340;48.756;9.226;2023-04-24T00:33:33;11.40;99.90
18426;DHT22;9340;48.756;9.226;2023-04-24T00:35:59;11.40;99.90
18426;DHT22;9340;48.756;9.226;2023-04-24T00:38:26;11.50;99.90
18426;DHT22;9340;48.756;9.226;2023-04-24T00:40:53;11.50;99.90
18426;DHT22;9340;48.756;9.226;2023-04-24T00:43:20;11.60;99.90
18426;DHT22;9340;48.756;9.226;2023-04-24T00:45:48;11.60;99.90
18426;DHT22;9340;48.756;9.226;2023-04-24T00:48:15;11.70;99.90
18426;DHT22;9340;48.756;9.226;2023-04-24T00:50:42;11.60;99.90
18426;DHT22;9340;48.756;9.226;2023-04-24T00:53:09;11.60;99.90
18426;DHT22;9340;48.756;9.226;2023-04-24T00:55:35;11.60;99.90
18426;DHT22;9340;48.756;9.226;2023-04-24T00:58:03;11.60;99.90
18426;DHT22;9340;48.756;9.226;2023-04-24T01:00:31;11.60;99.90
18426;DHT22;9340;48.756;9.226;2023-04-24T01:02:59;11.70;99.90
18426;DHT22;9340;48.756;9.226;2023-04-24T01:05:28;11.70;99.90
18426;DHT22;9340;48.756;9.226;2023-04-24T01:07:55;11.80;99.90
18426;DHT22;9340;48.756;9.226;2023-04-24T01:10:23;11.80;99.90
18426;DHT22;9340;48.756;9.226;2023-04-24T01:12:50;11.80;99.90
18426;DHT22;9340;48.756;9.226;2023-04-24T01:15:18;11.80;99.90
18426;DHT22;9340;48.756;9.226;2023-04-24T01:17:44;11.80;99.90
18426;DHT22;9340;48.756;9.226;2023-04-24T01:20:13;11.80;99.90
18426;DHT22;9340;48.756;9.226;2023-04-24T01:22:42;11.90;99.90
18426;DHT22;9340;48.756;9.226;2023-04-24T01:25:09;11.90;99.90
18426;DHT22;9340;48.756;9.226;2023-04-24T01:27:36;11.80;99.90
18426;DHT22;9340;48.756;9.226;2023-04-24T01:30:04;11.80;99.90
18426;DHT22;9340;48.756;9.226;2023-04-24T01:32:32;11.80;99.90
18426;DHT22;9340;48.756;9.226;2023-04-24T01:34:59;11.90;99.90
18426;DHT22;9340;48.756;9.226;2023-04-24T01:37:26;11.80;99.90
18426;DHT22;9340;48.756;9.226;2023-04-24T01:39:54;11.80;99.90
18426;DHT22;9340;48.756;9.226;2023-04-24T01:42:21;11.90;99.90
18426;DHT22;9340;48.756;9.226;2023-04-24T01:44:48;11.80;99.90
18426;DHT22;9340;48.756;9.226;2023-04-24T01:47:15;11.80;99.90
18426;DHT22;9340;48.756;9.226;2023-04-24T01:49:42;11.70;99.90
18426;DHT22;9340;48.756;9.226;2023-04-24T01:52:09;11.60;99.90
18426;DHT22;9340;48.756;9.226;2023-04-24T01:54:35;11.60;99.90
18426;DHT22;9340;48.756;9.226;2023-04-24T01:57:03;11.60;99.90
18426;DHT22;9340;48.756;9.226;2023-04-24T01:59:31;11.60;99.90
18426;DHT22;9340;48.756;9.226;2023-04-24T02:01:59;11.50;99.90
18426;DHT22;9340;48.756;9.226;2023-04-24T02:04:26;11.40;99.90
18426;DHT22;9340;48.756;9.226;2023-04-24T02:06:52;11.30;99.90
18426;DHT22;9340;48.756;9.226;2023-04-24T02:09:20;11.20;99.90
18426;DHT22;9340;48.756;9.226;2023-04-24T02:11:46;11.20;99.90
18426;DHT22;9340;48.756;9.226;2023-04-24T02:14:14;11.10;99.90
18426;DHT22;9340;48.756;9.226;2023-04-24T02:16:41;11.10;99.90
18426;DHT22;9340;48.756;9.226;2023-04-24T02:19:08;11.20;99.90
18426;DHT22;9340;48.756;9.226;2023-04-24T02:21:34;11.20;99.90
18426;DHT22;9340;48.756;9.226;2023-04-24T02:24:01;11.20;99.90
18426;DHT22;9340;48.756;9.226;2023-04-24T02:26:28;11.20;99.90
18426;DHT22;9340;48.756;9.226;2023-04-24T02:28:57;11.10;99.90
18426;DHT22;9340;48.756;9.226;2023-04-24T02:31:25;11.10;99.90
18426;DHT22;9340;48.756;9.226;2023-04-24T02:33:51;11.10;99.90
18426;DHT22;9340;48.756;9.226;2023-04-24T02:36:18;10.90;99.90
18426;DHT22;9340;48.756;9.226;2023-04-24T02:38:45;10.90;99.90
18426;DHT22;9340;48.756;9.226;2023-04-24T02:41:11;10.90;99.90
18426;DHT22;9340;48.756;9.226;2023-04-24T02:43:38;10.90;99.90
18426;DHT22;9340;48.756;9.226;2023-04-24T02:46:05;11.00;99.90
18426;DHT22;9340;48.756;9.226;2023-04-24T02:48:33;11.00;99.90
18426;DHT22;9340;48.756;9.226;2023-04-24T02:51:00;11.10;99.90
18426;DHT22;9340;48.756;9.226;2023-04-24T02:53:26;11.10;99.90
18426;DHT22;9340;48.756;9.226;2023-04-24T02:55:55;11.20;99.90
18426;DHT22;9340;48.756;9.226;2023-04-24T02:58:22;11.20;99.90
18426;DHT22;9340;48.756;9.226;2023-04-24T03:00:48;11.30;99.90
18426;DHT22;9340;48.756;9.226;2023-04-24T03:03:15;11.30;99.90
18426;DHT22;9340;48.756;9.226;2023-04-24T03:05:43;11.30;99.90
18426;DHT22;9340;48.756;9.226;2023-04-24T03:08:10;11.30;99.90
18426;DHT22;9340;48.756;9.226;2023-04-24T03:10:36;11.20;99.90
18426;DHT22;9340;48.756;9.226;2023-04-24T03:13:03;11.20;99.90
18426;DHT22;9340;48.756;9.226;2023-04-24T03:15:30;11.20;99.90
18426;DHT22;9340;48.756;9.226;2023-04-24T03:17:56;11.10;99.90
18426;DHT22;9340;48.756;9.226;2023-04-24T03:20:23;11.30;99.90
18426;DHT22;9340;48.756;9.226;2023-04-24T03:22:51;11.20;99.90
18426;DHT22;9340;48.756;9.226;2023-04-24T03:25:18;11.10;99.90
18426;DHT22;9340;48.756;9.226;2023-04-24T03:27:45;11.00;99.90
18426;DHT22;9340;48.756;9.226;2023-04-24T03:30:12;10.90;99.90
18426;DHT22;9340;48.756;9.226;2023-04-24T03:32:39;10.90;99.90
18426;DHT22;9340;48.756;9.226;2023-04-24T03:35:06;10.80;99.90
18426;DHT22;9340;48.756;9.226;2023-04-24T03:37:33;10.80;99.90
18426;DHT22;9340;48.756;9.226;2023-04-24T03:40:01;10.60;99.90
18426;DHT22;9340;48.756;9.226;2023-04-24T03:42:28;10.60;99.90
18426;DHT22;9340;48.756;9.226;2023-04-24T03:44:55;10.50;99.90
18426;DHT22;9340;48.756;9.226;2023-04-24T03:47:22;10.50;99.90
18426;DHT22;9340;48.756;9.226;2023-04-24T03:49:48;10.50;99.90
18426;DHT22;9340;48.756;9.226;2023-04-24T03:52:15;10.60;99.90
18426;DHT22;9340;48.756;9.226;2023-04-24T03:54:42;10.60;99.90
18426;DHT22;9340;48.756;9.226;2023-04-24T03:57:10;10.50;99.90
18426;DHT22;9340;48.756;9.226;2023-04-24T03:59:36;10.40;99.90
18426;DHT22;9340;48.756;9.226;2023-04-24T04:02:03;10.20;99.90
18426;DHT22;9340;48.756;9.226;2023-04-24T04:04:29;10.10;99.90
18426;DHT22;9340;48.756;9.226;2023-04-24T04:06:57;10.10;99.90
18426;DHT22;9340;48.756;9.226;2023-04-24T04:09:26;10.00;99.90
18426;DHT22;9340;48.756;9.226;2023-04-24T04:11:53;9.90;99.90
18426;DHT22;9340;48.756;9.226;2023-04-24T04:14:21;9.90;99.90
18426;DHT22;9340;48.756;9.226;2023-04-24T04:16:48;9.90;99.90
18426;DHT22;9340;48.756;9.226;2023-04-24T04:19:15;10.00;99.90
18426;DHT22;9340;48.756;9.226;2023-04-24T04:21:41;10.10;99.90
18426;DHT22;9340;48.756;9.226;2023-04-24T04:24:08;10.20;99.90
18426;DHT22;9340;48.756;9.226;2023-04-24T04:26:35;10.30;99.90
18426;DHT22;9340;48.756;9.226;2023-04-24T04:29:03;10.40;99.90
18426;DHT22;9340;48.756;9.226;2023-04-24T04:31:31;10.60;99.90
18426;DHT22;9340;48.756;9.226;2023-04-24T04:33:58;10.60;99.90
18426;DHT22;9340;48.756;9.226;2023-04-24T04:36:24;10.70;99.90
18426;DHT22;9340;48.756;9.226;2023-04-24T04:38:51;10.80;99.90
18426;DHT22;9340;48.756;9.226;2023-04-24T04:41:20;10.80;99.90
18426;DHT22;9340;48.756;9.226;2023-04-24T04:43:46;10.90;99.90
18426;DHT22;9340;48.756;9.226;2023-04-24T04:46:13;10.80;99.90
18426;DHT22;9340;48.756;9.226;2023-04-24T04:48:41;10.90;99.90
18426;DHT22;9340;48.756;9.226;2023-04-24T04:51:08;10.90;99.90
18426;DHT22;9340;48.756;9.226;2023-04-24T04:53:35;10.90;99.90
18426;DHT22;9340;48.756;9.226;2023-04-24T04:56:01;10.90;99.90
18426;DHT22;9340;48.756;9.226;2023-04-24T04:58:28;10.80;99.90
18426;DHT22;9340;48.756;9.226;2023-04-24T05:00:55;10.80;99.90
18426;DHT22;9340;48.756;9.226;2023-04-24T05:03:22;10.80;99.90
18426;DHT22;9340;48.756;9.226;2023-04-24T05:05:50;10.80;99.90
18426;DHT22;9340;48.756;9.226;2023-04-24T05:08:17;10.80;99.90
18426;DHT22;9340;48.756;9.226;2023-04-24T05:10:43;10.80;99.90
18426;DHT22;9340;48.756;9.226;2023-04-24T05:13:10;10.80;99.90
18426;DHT22;9340;48.756;9.226;2023-04-24T05:15:37;10.80;99.90
18426;DHT22;9340;48.756;9.226;2023-04-24T05:18:03;10.80;99.90
18426;DHT22;9340;48.756;9.226;2023-04-24T05:20:30;10.90;99.90
18426;DHT22;9340;48.756;9.226;2023-04-24T05:22:58;10.90;99.90
18426;DHT22;9340;48.756;9.226;2023-04-24T05:25:25;10.90;99.90
18426;DHT22;9340;48.756;9.226;2023-04-24T05:27:52;10.90;99.90
18426;DHT22;9340;48.756;9.226;2023-04-24T05:30:19;10.90;99.90
18426;DHT22;9340;48.756;9.226;2023-04-24T05:32:45;11.00;99.90
18426;DHT22;9340;48.756;9.226;2023-04-24T05:35:12;11.00;99.90
18426;DHT22;9340;48.756;9.226;2023-04-24T05:37:39;11.00;99.90
18426;DHT22;9340;48.756;9.226;2023-04-24T05:40:08;11.10;99.90
18426;DHT22;9340;48.756;9.226;2023-04-24T05:42:35;11.20;99.90
18426;DHT22;9340;48.756;9.226;2023-04-24T05:45:02;11.30;99.90
18426;DHT22;9340;48.756;9.226;2023-04-24T05:47:29;11.30;99.90
18426;DHT22;9340;48.756;9.226;2023-04-24T05:49:56;11.40;99.90
18426;DHT22;9340;48.756;9.226;2023-04-24T05:52:23;11.50;99.90
18426;DHT22;9340;48.756;9.226;2023-04-24T05:54:50;11.70;99.90
18426;DHT22;9340;48.756;9.226;2023-04-24T05:57:19;11.90;99.90
18426;DHT22;9340;48.756;9.226;2023-04-24T05:59:45;12.00;99.90
18426;DHT22;9340;48.756;9.226;2023-04-24T06:02:12;11.90;99.90
18426;DHT22;9340;48.756;9.226;2023-04-24T06:04:39;11.80;99.90
18426;DHT22;9340;48.756;9.226;2023-04-24T06:07:05;11.70;99.90
18426;DHT22;9340;48.756;9.226;2023-04-24T06:09:32;11.80;99.90
18426;DHT22;9340;48.756;9.226;2023-04-24T06:11:59;11.70;99.90
18426;DHT22;9340;48.756;9.226;2023-04-24T06:14:27;11.70;99.90
18426;DHT22;9340;48.756;9.226;2023-04-24T06:16:53;11.70;99.90
18426;DHT22;9340;48.756;9.226;2023-04-24T06:19:20;11.70;99.90
18426;DHT22;9340;48.756;9.226;2023-04-24T06:21:47;11.80;99.90
18426;DHT22;9340;48.756;9.226;2023-04-24T06:24:14;12.00;99.90
18426;DHT22;9340;48.756;9.226;2023-04-24T06:26:42;12.00;99.90
18426;DHT22;9340;48.756;9.226;2023-04-24T06:29:08;11.90;99.90
18426;DHT22;9340;48.756;9.226;2023-04-24T06:31:36;11.90;99.90
18426;DHT22;9340;48.756;9.226;2023-04-24T06:34:03;11.90;99.90
18426;DHT22;9340;48.756;9.226;2023-04-24T06:36:30;11.90;99.90
18426;DHT22;9340;48.756;9.226;2023-04-24T06:38:57;11.90;99.90
18426;DHT22;9340;48.756;9.226;2023-04-24T06:41:24;11.90;99.90
18426;DHT22;9340;48.756;9.226;2023-04-24T06:43:51;12.10;99.90
18426;DHT22;9340;48.756;9.226;2023-04-24T06:46:17;12.10;99.90
18426;DHT22;9340;48.756;9.226;2023-04-24T06:48:49;12.20;99.90
18426;DHT22;9340;48.756;9.226;2023-04-24T06:51:15;12.30;99.90
18426;DHT22;9340;48.756;9.226;2023-04-24T06:53:43;12.40;99.90
18426;DHT22;9340;48.756;9.226;2023-04-24T06:56:10;12.50;99.90
18426;DHT22;9340;48.756;9.226;2023-04-24T06:58:37;12.50;99.90
18426;DHT22;9340;48.756;9.226;2023-04-24T07:01:03;12.70;99.90
18426;DHT22;9340;48.756;9.226;2023-04-24T07:03:30;13.10;99.90
18426;DHT22;9340;48.756;9.226;2023-04-24T07:05:58;13.70;99.90
18426;DHT22;9340;48.756;9.226;2023-04-24T07:08:25;14.20;99.90
18426;DHT22;9340;48.756;9.226;2023-04-24T07:10:52;14.60;99.90
18426;DHT22;9340;48.756;9.226;2023-04-24T07:13:19;14.90;99.90
18426;DHT22;9340;48.756;9.226;2023-04-24T07:15:45;15.30;99.90
18426;DHT22;9340;48.756;9.226;2023-04-24T07:18:14;15.20;99.90
18426;DHT22;9340;48.756;9.226;2023-04-24T07:20:41;15.10;99.90
18426;DHT22;9340;48.756;9.226;2023-04-24T07:23:09;15.00;99.90
18426;DHT22;9340;48.756;9.226;2023-04-24T07:25:35;14.80;99.90
18426;DHT22;9340;48.756;9.226;2023-04-24T07:28:02;14.40;99.90
18426;DHT22;9340;48.756;9.226;2023-04-24T07:30:30;14.20;99.90
18426;DHT22;9340;48.756;9.226;2023-04-24T07:32:58;13.90;99.90
18426;DHT22;9340;48.756;9.226;2023-04-24T07:35:25;13.70;99.90
18426;DHT22;9340;48.756;9.226;2023-04-24T07:37:52;13.70;99.90
18426;DHT22;9340;48.756;9.226;2023-04-24T07:40:20;13.80;99.90
18426;DHT22;9340;48.756;9.226;2023-04-24T07:42:47;14.10;99.90
18426;DHT22;9340;48.756;9.226;2023-04-24T07:45:14;14.40;99.90
18426;DHT22;9340;48.756;9.226;2023-04-24T07:47:42;14.50;99.90
18426;DHT22;9340;48.756;9.226;2023-04-24T07:50:11;14.90;99.90
18426;DHT22;9340;48.756;9.226;2023-04-24T07:52:38;15.20;99.90
18426;DHT22;9340;48.756;9.226;2023-04-24T07:55:05;15.30;99.90
18426;DHT22;9340;48.756;9.226;2023-04-24T07:57:33;15.30;99.90
18426;DHT22;9340;48.756;9.226;2023-04-24T08:00:00;15.50;99.90
18426;DHT22;9340;48.756;9.226;2023-04-24T08:02:27;15.90;99.90
18426;DHT22;9340;48.756;9.226;2023-04-24T08:04:54;16.00;99.90
18426;DHT22;9340;48.756;9.226;2023-04-24T08:07:21;15.70;99.90
18426;DHT22;9340;48.756;9.226;2023-04-24T08:09:48;15.80;99.90
18426;DHT22;9340;48.756;9.226;2023-04-24T08:12:14;15.90;99.90
18426;DHT22;9340;48.756;9.226;2023-04-24T08:14:42;16.00;99.90
18426;DHT22;9340;48.756;9.226;2023-04-24T08:17:09;16.00;99.90
18426;DHT22;9340;48.756;9.226;2023-04-24T08:19:36;16.00;99.90
18426;DHT22;9340;48.756;9.226;2023-04-24T08:22:02;16.10;99.90
18426;DHT22;9340;48.756;9.226;2023-04-24T08:24:29;15.80;99.90
18426;DHT22;9340;48.756;9.226;2023-04-24T08:26:56;15.80;99.90
18426;DHT22;9340;48.756;9.226;2023-04-24T08:29:23;15.90;99.90
18426;DHT22;9340;48.756;9.226;2023-04-24T08:31:51;16.00;99.90
18426;DHT22;9340;48.756;9.226;2023-04-24T08:34:19;16.00;99.90
18426;DHT22;9340;48.756;9.226;2023-04-24T08:36:46;16.00;99.90
18426;DHT22;9340;48.756;9.226;2023-04-24T08:39:14;16.20;99.90
18426;DHT22;9340;48.756;9.226;2023-04-24T08:41:41;16.40;99.90
18426;DHT22;9340;48.756;9.226;2023-04-24T08:44:11;16.50;99.90
18426;DHT22;9340;48.756;9.226;2023-04-24T08:46:38;16.50;99.90
18426;DHT22;9340;48.756;9.226;2023-04-24T08:49:07;16.20;99.90
18426;DHT22;9340;48.756;9.226;2023-04-24T08:51:34;16.00;99.90
18426;DHT22;9340;48.756;9.226;2023-04-24T08:54:03;15.60;99.90
18426;DHT22;9340;48.756;9.226;2023-04-24T08:56:32;15.40;99.90
18426;DHT22;9340;48.756;9.226;2023-04-24T08:58:59;15.10;99.90
18426;DHT22;9340;48.756;9.226;2023-04-24T09:01:26;15.20;99.90
18426;DHT22;9340;48.756;9.226;2023-04-24T09:03:54;15.50;99.90
18426;DHT22;9340;48.756;9.226;2023-04-24T09:06:24;16.00;99.90
18426;DHT22;9340;48.756;9.226;2023-04-24T09:08:54;16.60;99.90
18426;DHT22;9340;48.756;9.226;2023-04-24T09:11:21;16.80;99.90
18426;DHT22;9340;48.756;9.226;2023-04-24T09:13:49;16.60;99.90
18426;DHT22;9340;48.756;9.226;2023-04-24T09:16:17;16.20;99.90
18426;DHT22;9340;48.756;9.226;2023-04-24T09:18:44;16.00;99.90
18426;DHT22;9340;48.756;9.226;2023-04-24T09:21:11;15.70;99.90
18426;DHT22;9340;48.756;9.226;2023-04-24T09:23:39;15.30;99.90
18426;DHT22;9340;48.756;9.226;2023-04-24T09:26:06;14.90;99.90
18426;DHT22;9340;48.756;9.226;2023-04-24T09:28:36;14.90;99.90
18426;DHT22;9340;48.756;9.226;2023-04-24T09:31:05;14.80;99.90
18426;DHT22;9340;48.756;9.226;2023-04-24T09:33:32;14.80;99.90
18426;DHT22;9340;48.756;9.226;2023-04-24T09:35:59;14.80;99.90
18426;DHT22;9340;48.756;9.226;2023-04-24T09:38:31;15.00;99.90
18426;DHT22;9340;48.756;9.226;2023-04-24T09:41:00;14.90;99.90
18426;DHT22;9340;48.756;9.226;2023-04-24T09:43:28;14.80;99.90
18426;DHT22;9340;48.756;9.226;2023-04-24T09:45:56;14.90;99.90
18426;DHT22;9340;48.756;9.226;2023-04-24T09:48:30;15.20;99.90
18426;DHT22;9340;48.756;9.226;2023-04-24T09:50:57;15.70;99.90
18426;DHT22;9340;48.756;9.226;2023-04-24T09:53:24;16.10;99.90
18426;DHT22;9340;48.756;9.226;2023-04-24T09:55:51;16.20;99.90
18426;DHT22;9340;48.756;9.226;2023-04-24T09:58:24;16.00;99.90
18426;DHT22;9340;48.756;9.226;2023-04-24T10:00:53;15.90;99.90
18426;DHT22;9340;48.756;9.226;2023-04-24T10:03:24;15.60;99.90
18426;DHT22;9340;48.756;9.226;2023-04-24T10:05:51;15.30;99.90
18426;DHT22;9340;48.756;9.226;2023-04-24T10:08:18;15.40;99.90
18426;DHT22;9340;48.756;9.226;2023-04-24T10:10:46;15.40;99.90
18426;DHT22;9340;48.756;9.226;2023-04-24T10:13:14;15.20;99.90
18426;DHT22;9340;48.756;9.226;2023-04-24T10:15:42;15.50;99.90
18426;DHT22;9340;48.756;9.226;2023-04-24T10:18:10;15.60;99.90
18426;DHT22;9340;48.756;9.226;2023-04-24T10:20:38;15.90;99.90
18426;DHT22;9340;48.756;9.226;2023-04-24T10:23:05;15.80;99.90
18426;DHT22;9340;48.756;9.226;2023-04-24T10:25:33;15.70;99.90
18426;DHT22;9340;48.756;9.226;2023-04-24T10:28:02;15.50;99.90
18426;DHT22;9340;48.756;9.226;2023-04-24T10:30:30;15.60;99.90
18426;DHT22;9340;48.756;9.226;2023-04-24T10:33:01;16.10;99.90
18426;DHT22;9340;48.756;9.226;2023-04-24T10:35:31;16.60;99.90
18426;DHT22;9340;48.756;9.226;2023-04-24T10:38:01;17.20;99.90
18426;DHT22;9340;48.756;9.226;2023-04-24T10:40:31;17.10;99.90
18426;DHT22;9340;48.756;9.226;2023-04-24T10:42:59;16.90;99.90
18426;DHT22;9340;48.756;9.226;2023-04-24T10:45:26;16.70;99.90
18426;DHT22;9340;48.756;9.226;2023-04-24T10:48:04;16.70;99.90
18426;DHT22;9340;48.756;9.226;2023-04-24T10:50:43;16.40;99.90
18426;DHT22;9340;48.756;9.226;2023-04-24T10:53:13;15.80;99.90
18426;DHT22;9340;48.756;9.226;2023-04-24T10:55:43;15.50;99.90
18426;DHT22;9340;48.756;9.226;2023-04-24T10:58:10;15.30;99.90
18426;DHT22;9340;48.756;9.226;2023-04-24T11:00:38;14.70;99.90
18426;DHT22;9340;48.756;9.226;2023-04-24T11:03:22;14.50;99.90
18426;DHT22;9340;48.756;9.226;2023-04-24T11:05:58;14.70;99.90
18426;DHT22;9340;48.756;9.226;2023-04-24T11:08:27;15.00;99.90
18426;DHT22;9340;48.756;9.226;2023-04-24T11:10:56;15.20;99.90
18426;DHT22;9340;48.756;9.226;2023-04-24T11:13:25;15.40;99.90
18426;DHT22;9340;48.756;9.226;2023-04-24T11:16:14;15.20;99.90
18426;DHT22;9340;48.756;9.226;2023-04-24T11:18:43;14.90;99.90
18426;DHT22;9340;48.756;9.226;2023-04-24T11:21:16;14.60;99.90
18426;DHT22;9340;48.756;9.226;2023-04-24T11:23:44;14.40;99.90
18426;DHT22;9340;48.756;9.226;2023-04-24T11:26:12;14.30;99.90
18426;DHT22;9340;48.756;9.226;2023-04-24T11:28:44;14.50;99.90
18426;DHT22;9340;48.756;9.226;2023-04-24T11:31:34;14.80;99.90
18426;DHT22;9340;48.756;9.226;2023-04-24T11:34:07;15.10;99.90
18426;DHT22;9340;48.756;9.226;2023-04-24T11:36:34;15.70;99.90
18426;DHT22;9340;48.756;9.226;2023-04-24T11:39:02;16.20;99.90
18426;DHT22;9340;48.756;9.226;2023-04-24T11:41:29;16.70;99.90
18426;DHT22;9340;48.756;9.226;2023-04-24T11:43:57;16.80;99.90
18426;DHT22;9340;48.756;9.226;2023-04-24T11:46:27;17.10;99.90
18426;DHT22;9340;48.756;9.226;2023-04-24T11:48:54;17.10;99.90
18426;DHT22;9340;48.756;9.226;2023-04-24T11:51:22;16.80;99.90
18426;DHT22;9340;48.756;9.226;2023-04-24T11:53:49;16.50;99.90
18426;DHT22;9340;48.756;9.226;2023-04-24T11:56:17;15.80;99.90
18426;DHT22;9340;48.756;9.226;2023-04-24T11:58:45;15.50;99.90
18426;DHT22;9340;48.756;9.226;2023-04-24T12:01:12;15.30;99.90
18426;DHT22;9340;48.756;9.226;2023-04-24T12:03:38;15.20;99.90
18426;DHT22;9340;48.756;9.226;2023-04-24T12:06:06;15.30;99.90
18426;DHT22;9340;48.756;9.226;2023-04-24T12:08:34;15.60;99.90
18426;DHT22;9340;48.756;9.226;2023-04-24T12:11:01;15.90;99.90
18426;DHT22;9340;48.756;9.226;2023-04-24T12:13:29;16.20;99.90
18426;DHT22;9340;48.756;9.226;2023-04-24T12:15:57;16.40;99.90
18426;DHT22;9340;48.756;9.226;2023-04-24T12:18:23;16.70;99.90
18426;DHT22;9340;48.756;9.226;2023-04-24T12:20:50;16.60;99.90
18426;DHT22;9340;48.756;9.226;2023-04-24T12:23:34;16.20;99.90
18426;DHT22;9340;48.756;9.226;2023-04-24T12:26:03;16.10;99.90
18426;DHT22;9340;48.756;9.226;2023-04-24T12:28:35;16.00;99.90
18426;DHT22;9340;48.756;9.226;2023-04-24T12:31:02;15.60;99.90
18426;DHT22;9340;48.756;9.226;2023-04-24T12:33:32;15.50;99.90
18426;DHT22;9340;48.756;9.226;2023-04-24T12:35:59;15.30;99.90
18426;DHT22;9340;48.756;9.226;2023-04-24T12:38:28;15.40;99.90
18426;DHT22;9340;48.756;9.226;2023-04-24T12:41:06;15.70;99.90
18426;DHT22;9340;48.756;9.226;2023-04-24T12:43:33;16.00;99.90
18426;DHT22;9340;48.756;9.226;2023-04-24T12:46:00;16.20;99.90
18426;DHT22;9340;48.756;9.226;2023-04-24T12:48:27;16.10;99.90
18426;DHT22;9340;48.756;9.226;2023-04-24T12:50:53;16.40;99.90
18426;DHT22;9340;48.756;9.226;2023-04-24T12:53:21;16.30;99.90
18426;DHT22;9340;48.756;9.226;2023-04-24T12:55:47;16.40;99.90
18426;DHT22;9340;48.756;9.226;2023-04-24T12:58:20;16.50;99.90
18426;DHT22;9340;48.756;9.226;2023-04-24T13:00:47;16.40;99.90
18426;DHT22;9340;48.756;9.226;2023-04-24T13:03:14;15.60;99.90
18426;DHT22;9340;48.756;9.226;2023-04-24T13:05:42;15.20;99.90
18426;DHT22;9340;48.756;9.226;2023-04-24T13:08:09;14.90;99.90
18426;DHT22;9340;48.756;9.226;2023-04-24T13:10:38;14.70;99.90
18426;DHT22;9340;48.756;9.226;2023-04-24T13:13:05;14.50;99.90
18426;DHT22;9340;48.756;9.226;2023-04-24T13:15:34;14.30;99.90
18426;DHT22;9340;48.756;9.226;2023-04-24T13:18:00;14.30;99.90
18426;DHT22;9340;48.756;9.226;2023-04-24T13:20:27;14.80;99.90
18426;DHT22;9340;48.756;9.226;2023-04-24T13:22:54;15.20;99.90
18426;DHT22;9340;48.756;9.226;2023-04-24T13:25:21;15.60;99.90
18426;DHT22;9340;48.756;9.226;2023-04-24T13:27:48;16.10;99.90
18426;DHT22;9340;48.756;9.226;2023-04-24T13:30:16;16.10;99.90
18426;DHT22;9340;48.756;9.226;2023-04-24T13:32:44;15.80;99.90
18426;DHT22;9340;48.756;9.226;2023-04-24T13:35:11;16.10;99.90
18426;DHT22;9340;48.756;9.226;2023-04-24T13:37:37;16.20;99.90
18426;DHT22;9340;48.756;9.226;2023-04-24T13:40:05;16.50;99.90
18426;DHT22;9340;48.756;9.226;2023-04-24T13:42:32;16.20;99.90
18426;DHT22;9340;48.756;9.226;2023-04-24T13:44:59;15.90;99.90
18426;DHT22;9340;48.756;9.226;2023-04-24T13:47:25;15.80;99.90
18426;DHT22;9340;48.756;9.226;2023-04-24T13:49:53;15.60;99.90
18426;DHT22;9340;48.756;9.226;2023-04-24T13:52:20;15.20;99.90
18426;DHT22;9340;48.756;9.226;2023-04-24T13:54:47;14.60;99.90
18426;DHT22;9340;48.756;9.226;2023-04-24T13:57:14;13.80;99.90
18426;DHT22;9340;48.756;9.226;2023-04-24T13:59:41;13.40;99.90
18426;DHT22;9340;48.756;9.226;2023-04-24T14:02:08;13.20;99.90
18426;DHT22;9340;48.756;9.226;2023-04-24T14:04:35;13.20;99.90
18426;DHT22;9340;48.756;9.226;2023-04-24T14:07:03;13.30;99.90
18426;DHT22;9340;48.756;9.226;2023-04-24T14:09:30;13.70;99.90
18426;DHT22;9340;48.756;9.226;2023-04-24T14:11:57;13.90;99.90
18426;DHT22;9340;48.756;9.226;2023-04-24T14:14:23;14.30;99.90
18426;DHT22;9340;48.756;9.226;2023-04-24T14:16:50;14.70;99.90
18426;DHT22;9340;48.756;9.226;2023-04-24T14:19:17;15.10;99.90
18426;DHT22;9340;48.756;9.226;2023-04-24T14:21:44;15.40;99.90
18426;DHT22;9340;48.756;9.226;2023-04-24T14:24:12;15.30;99.90
18426;DHT22;9340;48.756;9.226;2023-04-24T14:26:38;15.50;99.90
18426;DHT22;9340;48.756;9.226;2023-04-24T14:29:05;15.60;99.90
18426;DHT22;9340;48.756;9.226;2023-04-24T14:31:31;15.70;99.90
18426;DHT22;9340;48.756;9.226;2023-04-24T14:33:58;15.70;99.90
18426;DHT22;9340;48.756;9.226;2023-04-24T14:36:25;15.60;99.90
18426;DHT22;9340;48.756;9.226;2023-04-24T14:38:52;15.50;99.90
18426;DHT22;9340;48.756;9.226;2023-04-24T14:41:20;15.20;99.90
18426;DHT22;9340;48.756;9.226;2023-04-24T14:43:46;15.10;99.90
18426;DHT22;9340;48.756;9.226;2023-04-24T14:46:13;15.30;99.90
18426;DHT22;9340;48.756;9.226;2023-04-24T14:48:40;15.40;99.90
18426;DHT22;9340;48.756;9.226;2023-04-24T14:51:06;15.50;99.90
18426;DHT22;9340;48.756;9.226;2023-04-24T14:53:34;15.60;99.90
18426;DHT22;9340;48.756;9.226;2023-04-24T14:56:00;15.50;99.90
18426;DHT22;9340;48.756;9.226;2023-04-24T14:58:28;15.40;99.90
18426;DHT22;9340;48.756;9.226;2023-04-24T15:00:55;15.50;99.90
18426;DHT22;9340;48.756;9.226;2023-04-24T15:03:22;15.80;99.90
18426;DHT22;9340;48.756;9.226;2023-04-24T15:05:49;15.80;99.90
18426;DHT22;9340;48.756;9.226;2023-04-24T15:08:17;16.10;99.90
18426;DHT22;9340;48.756;9.226;2023-04-24T15:10:45;16.00;99.90
18426;DHT22;9340;48.756;9.226;2023-04-24T15:13:12;15.70;99.90
18426;DHT22;9340;48.756;9.226;2023-04-24T15:15:40;15.20;99.90
18426;DHT22;9340;48.756;9.226;2023-04-24T15:18:08;14.70;99.90
18426;DHT22;9340;48.756;9.226;2023-04-24T15:20:37;14.40;99.90
18426;DHT22;9340;48.756;9.226;2023-04-24T15:23:05;14.30;99.90
18426;DHT22;9340;48.756;9.226;2023-04-24T15:25:32;14.40;99.90
18426;DHT22;9340;48.756;9.226;2023-04-24T15:27:58;14.30;99.90
18426;DHT22;9340;48.756;9.226;2023-04-24T15:30:25;14.20;99.90
18426;DHT22;9340;48.756;9.226;2023-04-24T15:32:54;14.10;99.90
18426;DHT22;9340;48.756;9.226;2023-04-24T15:35:21;14.10;99.90
18426;DHT22;9340;48.756;9.226;2023-04-24T15:37:48;14.00;99.90
18426;DHT22;9340;48.756;9.226;2023-04-24T15:40:15;14.10;99.90
18426;DHT22;9340;48.756;9.226;2023-04-24T15:42:42;14.20;99.90
18426;DHT22;9340;48.756;9.226;2023-04-24T15:45:10;14.30;99.90
18426;DHT22;9340;48.756;9.226;2023-04-24T15:47:37;14.10;99.90
18426;DHT22;9340;48.756;9.226;2023-04-24T15:50:06;14.00;99.90